sensor_id;sensor_type;location;lat;lon;timestamp;pressure;altitude;pressure_sealevel;temperature;humidity
73600;BME280;61877;48.246;9.220;2023-08-30T00:02:04;93599.47;;;11.49;100.00
73600;BME280;61877;48.246;9.220;2023-08-30T00:04:32;93593.34;;;11.49;100.00
73600;BME280;61877;48.246;9.220;2023-08-30T00:07:02;93603.75;;;11.50;100.00
73600;BME280;61877;48.246;9.220;2023-08-30T00:09:28;93593.00;;;11.50;100.00
73600;BME280;61877;48.246;9.220;2023-08-30T00:11:55;93596.88;;;11.53;100.00
73600;BME280;61877;48.246;9.220;2023-08-30T00:14:21;93589.59;;;11.53;100.00
73600;BME280;61877;48.246;9.220;2023-08-30T00:16:51;93592.28;;;11.53;100.00
73600;BME280;61877;48.246;9.220;2023-08-30T00:19:17;93591.84;;;11.51;100.00
73600;BME280;61877;48.246;9.220;2023-08-30T00:21:42;93591.06;;;11.51;100.00
73600;BME280;61877;48.246;9.220;2023-08-30T00:24:09;93597.22;;;11.51;100.00
73600;BME280;61877;48.246;9.220;2023-08-30T00:26:40;93599.56;;;11.53;100.00
73600;BME280;61877;48.246;9.220;2023-08-30T00:29:06;93602.16;;;11.49;100.00
73600;BME280;61877;48.246;9.220;2023-08-30T00:31:32;93593.34;;;11.49;100.00
73600;BME280;61877;48.246;9.220;2023-08-30T00:33:58;93591.84;;;11.51;100.00
73600;BME280;61877;48.246;9.220;2023-08-30T00:36:24;93593.41;;;11.52;100.00
73600;BME280;61877;48.246;9.220;2023-08-30T00:38:49;93595.75;;;11.54;100.00
73600;BME280;61877;48.246;9.220;2023-08-30T00:41:17;93590.94;;;11.44;100.00
73600;BME280;61877;48.246;9.220;2023-08-30T00:43:42;93592.94;;;11.47;100.00
73600;BME280;61877;48.246;9.220;2023-08-30T00:46:07;93589.88;;;11.48;100.00
73600;BME280;61877;48.246;9.220;2023-08-30T00:48:33;93591.84;;;11.51;100.00
73600;BME280;61877;48.246;9.220;2023-08-30T00:50:58;93581.81;;;11.48;100.00
73600;BME280;61877;48.246;9.220;2023-08-30T00:53:24;93580.22;;;11.44;100.00
73600;BME280;61877;48.246;9.220;2023-08-30T00:55:51;93577.16;;;11.45;100.00
73600;BME280;61877;48.246;9.220;2023-08-30T00:58:18;93570.22;;;11.44;100.00
73600;BME280;61877;48.246;9.220;2023-08-30T01:00:44;93567.97;;;11.46;100.00
73600;BME280;61877;48.246;9.220;2023-08-30T01:03:09;93566.34;;;11.42;100.00
73600;BME280;61877;48.246;9.220;2023-08-30T01:05:37;93565.50;;;11.38;100.00
73600;BME280;61877;48.246;9.220;2023-08-30T01:08:04;93560.06;;;11.34;100.00
73600;BME280;61877;48.246;9.220;2023-08-30T01:10:41;93554.28;;;11.32;100.00
73600;BME280;61877;48.246;9.220;2023-08-30T01:13:12;93554.22;;;11.29;100.00
73600;BME280;61877;48.246;9.220;2023-08-30T01:15:45;93555.25;;;11.24;100.00
73600;BME280;61877;48.246;9.220;2023-08-30T01:18:12;93545.94;;;11.18;100.00
73600;BME280;61877;48.246;9.220;2023-08-30T01:20:40;93551.22;;;11.15;100.00
73600;BME280;61877;48.246;9.220;2023-08-30T01:23:13;93551.16;;;11.11;100.00
73600;BME280;61877;48.246;9.220;2023-08-30T01:25:55;93547.28;;;11.09;100.00
73600;BME280;61877;48.246;9.220;2023-08-30T01:28:27;93548.38;;;11.08;100.00
73600;BME280;61877;48.246;9.220;2023-08-30T01:30:55;93553.41;;;11.09;100.00
73600;BME280;61877;48.246;9.220;2023-08-30T01:33:25;93545.06;;;11.14;100.00
73600;BME280;61877;48.246;9.220;2023-08-30T01:35:53;93548.25;;;11.20;100.00
73600;BME280;61877;48.246;9.220;2023-08-30T01:38:24;93551.38;;;11.22;100.00
73600;BME280;61877;48.246;9.220;2023-08-30T01:40:51;93543.69;;;11.20;100.00
73600;BME280;61877;48.246;9.220;2023-08-30T01:43:21;93548.34;;;11.23;100.00
73600;BME280;61877;48.246;9.220;2023-08-30T01:45:48;93540.72;;;11.25;100.00
73600;BME280;61877;48.246;9.220;2023-08-30T01:48:15;93550.75;;;11.28;100.00
73600;BME280;61877;48.246;9.220;2023-08-30T01:50:44;93547.63;;;11.26;100.00
73600;BME280;61877;48.246;9.220;2023-08-30T01:53:13;93544.22;;;11.29;100.00
73600;BME280;61877;48.246;9.220;2023-08-30T01:55:39;93549.53;;;11.26;100.00
73600;BME280;61877;48.246;9.220;2023-08-30T01:58:06;93548.41;;;11.27;100.00
73600;BME280;61877;48.246;9.220;2023-08-30T02:00:32;93547.63;;;11.26;100.00
73600;BME280;61877;48.246;9.220;2023-08-30T02:02:59;93540.78;;;11.29;100.00
73600;BME280;61877;48.246;9.220;2023-08-30T02:05:24;93547.41;;;11.35;100.00
73600;BME280;61877;48.246;9.220;2023-08-30T02:07:55;93548.91;;;11.32;100.00
73600;BME280;61877;48.246;9.220;2023-08-30T02:10:25;93550.81;;;11.32;100.00
73600;BME280;61877;48.246;9.220;2023-08-30T02:12:54;93559.22;;;11.30;100.00
73600;BME280;61877;48.246;9.220;2023-08-30T02:15:24;93552.00;;;11.34;100.00
73600;BME280;61877;48.246;9.220;2023-08-30T02:17:50;93558.50;;;11.33;100.00
73600;BME280;61877;48.246;9.220;2023-08-30T02:20:17;93554.31;;;11.36;100.00
73600;BME280;61877;48.246;9.220;2023-08-30T02:22:43;93553.91;;;11.34;100.00
73600;BME280;61877;48.246;9.220;2023-08-30T02:25:08;93554.31;;;11.36;100.00
73600;BME280;61877;48.246;9.220;2023-08-30T02:27:34;93555.59;;;11.42;100.00
73600;BME280;61877;48.246;9.220;2023-08-30T02:30:05;93550.31;;;11.45;100.00
73600;BME280;61877;48.246;9.220;2023-08-30T02:32:33;93551.13;;;11.49;100.00
73600;BME280;61877;48.246;9.220;2023-08-30T02:35:02;93548.16;;;11.54;100.00
73600;BME280;61877;48.246;9.220;2023-08-30T02:37:29;93544.16;;;11.45;100.00
73600;BME280;61877;48.246;9.220;2023-08-30T02:39:54;93541.69;;;11.55;100.00
73600;BME280;61877;48.246;9.220;2023-08-30T02:42:21;93546.97;;;11.52;100.00
73600;BME280;61877;48.246;9.220;2023-08-30T02:44:47;93556.94;;;11.51;100.00
73600;BME280;61877;48.246;9.220;2023-08-30T02:47:12;93546.63;;;11.53;100.00
73600;BME280;61877;48.246;9.220;2023-08-30T02:49:38;93551.28;;;11.56;100.00
73600;BME280;61877;48.246;9.220;2023-08-30T02:52:03;93547.03;;;11.55;100.00
73600;BME280;61877;48.246;9.220;2023-08-30T02:54:32;93552.81;;;11.57;100.00
73600;BME280;61877;48.246;9.220;2023-08-30T02:56:57;93552.41;;;11.55;100.00
73600;BME280;61877;48.246;9.220;2023-08-30T02:59:23;93553.53;;;11.54;100.00
73600;BME280;61877;48.246;9.220;2023-08-30T03:01:48;93552.41;;;11.55;100.00
73600;BME280;61877;48.246;9.220;2023-08-30T03:04:14;93563.56;;;11.57;100.00
73600;BME280;61877;48.246;9.220;2023-08-30T03:06:39;93559.34;;;11.56;100.00
73600;BME280;61877;48.246;9.220;2023-08-30T03:09:05;93552.81;;;11.57;100.00
73600;BME280;61877;48.246;9.220;2023-08-30T03:11:31;93545.53;;;11.58;100.00
73600;BME280;61877;48.246;9.220;2023-08-30T03:13:57;93542.66;;;11.47;100.00
73600;BME280;61877;48.246;9.220;2023-08-30T03:16:22;93542.66;;;11.47;100.00
73600;BME280;61877;48.246;9.220;2023-08-30T03:18:49;93545.00;;;11.49;100.00
73600;BME280;61877;48.246;9.220;2023-08-30T03:21:15;93547.34;;;11.50;100.00
73600;BME280;61877;48.246;9.220;2023-08-30T03:23:43;93549.59;;;11.48;100.00
73600;BME280;61877;48.246;9.220;2023-08-30T03:26:12;93544.22;;;11.48;100.00
73600;BME280;61877;48.246;9.220;2023-08-30T03:28:40;93548.81;;;11.48;100.00
73600;BME280;61877;48.246;9.220;2023-08-30T03:31:13;93540.38;;;11.49;100.00
73600;BME280;61877;48.246;9.220;2023-08-30T03:33:39;93541.25;;;11.53;100.00
73600;BME280;61877;48.246;9.220;2023-08-30T03:36:07;93542.38;;;11.52;100.00
73600;BME280;61877;48.246;9.220;2023-08-30T03:38:32;93543.88;;;11.50;100.00
73600;BME280;61877;48.246;9.220;2023-08-30T03:40:58;93539.91;;;11.44;100.00
73600;BME280;61877;48.246;9.220;2023-08-30T03:43:23;93536.09;;;11.45;100.00
73600;BME280;61877;48.246;9.220;2023-08-30T03:45:51;93539.56;;;11.45;100.00
73600;BME280;61877;48.246;9.220;2023-08-30T03:48:18;93532.69;;;11.48;100.00
73600;BME280;61877;48.246;9.220;2023-08-30T03:50:43;93537.91;;;11.41;100.00
73600;BME280;61877;48.246;9.220;2023-08-30T03:53:09;93539.50;;;11.42;100.00
73600;BME280;61877;48.246;9.220;2023-08-30T03:55:34;93544.50;;;11.43;100.00
73600;BME280;61877;48.246;9.220;2023-08-30T03:58:00;93549.88;;;11.43;100.00
73600;BME280;61877;48.246;9.220;2023-08-30T04:00:25;93548.38;;;11.46;100.00
73600;BME280;61877;48.246;9.220;2023-08-30T04:02:52;93550.72;;;11.47;100.00
73600;BME280;61877;48.246;9.220;2023-08-30T04:05:18;93550.31;;;11.45;100.00
73600;BME280;61877;48.246;9.220;2023-08-30T04:07:43;93554.09;;;11.44;100.00
73600;BME280;61877;48.246;9.220;2023-08-30T04:10:09;93548.03;;;11.47;100.00
73600;BME280;61877;48.246;9.220;2023-08-30T04:12:38;93547.25;;;11.47;100.00
73600;BME280;61877;48.246;9.220;2023-08-30T04:15:03;93542.59;;;11.44;100.00
73600;BME280;61877;48.246;9.220;2023-08-30T04:17:29;93546.84;;;11.45;100.00
73600;BME280;61877;48.246;9.220;2023-08-30T04:19:58;93551.72;;;11.39;100.00
73600;BME280;61877;48.246;9.220;2023-08-30T04:22:23;93548.56;;;11.34;100.00
73600;BME280;61877;48.246;9.220;2023-08-30T04:24:48;93544.09;;;11.41;100.00
73600;BME280;61877;48.246;9.220;2023-08-30T04:27:14;93561.63;;;11.35;100.00
73600;BME280;61877;48.246;9.220;2023-08-30T04:29:39;93560.47;;;11.36;100.00
73600;BME280;61877;48.246;9.220;2023-08-30T04:32:09;93559.00;;;11.39;100.00
73600;BME280;61877;48.246;9.220;2023-08-30T04:34:38;93554.69;;;11.34;100.00
73600;BME280;61877;48.246;9.220;2023-08-30T04:37:05;93549.75;;;11.36;100.00
73600;BME280;61877;48.246;9.220;2023-08-30T04:39:33;93554.69;;;11.34;100.00
73600;BME280;61877;48.246;9.220;2023-08-30T04:42:00;93549.31;;;11.34;100.00
73600;BME280;61877;48.246;9.220;2023-08-30T04:44:29;93548.84;;;11.29;100.00
73600;BME280;61877;48.246;9.220;2023-08-30T04:46:55;93542.41;;;11.33;100.00
73600;BME280;61877;48.246;9.220;2023-08-30T04:49:22;93543.88;;;11.31;100.00
73600;BME280;61877;48.246;9.220;2023-08-30T04:51:48;93535.47;;;11.32;100.00
73600;BME280;61877;48.246;9.220;2023-08-30T04:54:15;93547.06;;;11.36;100.00
73600;BME280;61877;48.246;9.220;2023-08-30T04:56:40;93540.13;;;11.35;100.00
73600;BME280;61877;48.246;9.220;2023-08-30T04:59:07;93529.88;;;11.41;100.00
73600;BME280;61877;48.246;9.220;2023-08-30T05:01:34;93532.63;;;11.44;100.00
73600;BME280;61877;48.246;9.220;2023-08-30T05:04:01;93533.41;;;11.45;100.00
73600;BME280;61877;48.246;9.220;2023-08-30T05:06:28;93536.53;;;11.47;100.00
73600;BME280;61877;48.246;9.220;2023-08-30T05:08:54;93536.59;;;11.50;100.00
73600;BME280;61877;48.246;9.220;2023-08-30T05:11:21;93539.69;;;11.52;100.00
73600;BME280;61877;48.246;9.220;2023-08-30T05:13:46;93537.28;;;11.47;100.00
73600;BME280;61877;48.246;9.220;2023-08-30T05:16:11;93534.25;;;11.49;100.00
73600;BME280;61877;48.246;9.220;2023-08-30T05:18:37;93535.94;;;11.57;100.00
73600;BME280;61877;48.246;9.220;2023-08-30T05:21:05;93532.03;;;11.54;100.00
73600;BME280;61877;48.246;9.220;2023-08-30T05:23:39;93534.81;;;11.58;100.00
73600;BME280;61877;48.246;9.220;2023-08-30T05:26:06;93532.63;;;11.63;100.00
73600;BME280;61877;48.246;9.220;2023-08-30T05:28:34;93531.81;;;11.63;100.00
73600;BME280;61877;48.246;9.220;2023-08-30T05:31:02;93525.75;;;11.66;100.00
73600;BME280;61877;48.246;9.220;2023-08-30T05:33:28;93524.75;;;11.74;100.00
73600;BME280;61877;48.246;9.220;2023-08-30T05:35:53;93519.78;;;11.76;100.00
73600;BME280;61877;48.246;9.220;2023-08-30T05:38:19;93533.31;;;11.80;100.00
73600;BME280;61877;48.246;9.220;2023-08-30T05:40:44;93527.19;;;11.83;100.00
73600;BME280;61877;48.246;9.220;2023-08-30T05:43:15;93519.63;;;11.88;100.00
73600;BME280;61877;48.246;9.220;2023-08-30T05:45:51;93527.41;;;11.93;100.00
73600;BME280;61877;48.246;9.220;2023-08-30T05:48:18;93524.84;;;12.00;100.00
73600;BME280;61877;48.246;9.220;2023-08-30T05:50:47;93527.03;;;11.95;100.00
73600;BME280;61877;48.246;9.220;2023-08-30T05:53:28;93523.03;;;12.08;100.00
73600;BME280;61877;48.246;9.220;2023-08-30T05:55:53;93527.31;;;12.12;100.00
73600;BME280;61877;48.246;9.220;2023-08-30T05:58:19;93529.34;;;12.19;100.00
73600;BME280;61877;48.246;9.220;2023-08-30T06:00:46;93534.38;;;12.20;100.00
73600;BME280;61877;48.246;9.220;2023-08-30T06:03:20;93536.28;;;12.20;100.00
73600;BME280;61877;48.246;9.220;2023-08-30T06:05:46;93537.09;;;12.24;100.00
73600;BME280;61877;48.246;9.220;2023-08-30T06:08:12;93538.44;;;12.11;100.00
73600;BME280;61877;48.246;9.220;2023-08-30T06:10:37;93539.41;;;12.22;100.00
73600;BME280;61877;48.246;9.220;2023-08-30T06:13:29;93552.28;;;12.13;100.00
73600;BME280;61877;48.246;9.220;2023-08-30T06:15:57;93551.88;;;12.11;100.00
73600;BME280;61877;48.246;9.220;2023-08-30T06:18:26;93556.28;;;12.22;100.00
73600;BME280;61877;48.246;9.220;2023-08-30T06:20:52;93558.69;;;12.27;100.00
73600;BME280;61877;48.246;9.220;2023-08-30T06:23:18;93552.56;;;12.30;100.00
73600;BME280;61877;48.246;9.220;2023-08-30T06:25:44;93561.31;;;12.24;100.00
73600;BME280;61877;48.246;9.220;2023-08-30T06:28:09;93556.09;;;12.34;100.00
73600;BME280;61877;48.246;9.220;2023-08-30T06:30:35;93565.09;;;12.42;100.00
73600;BME280;61877;48.246;9.220;2023-08-30T06:33:05;93562.97;;;12.54;100.00
73600;BME280;61877;48.246;9.220;2023-08-30T06:35:40;93567.25;;;12.59;100.00
73600;BME280;61877;48.246;9.220;2023-08-30T06:38:05;93571.09;;;12.58;100.00
73600;BME280;61877;48.246;9.220;2023-08-30T06:40:33;93568.66;;;12.75;100.00
73600;BME280;61877;48.246;9.220;2023-08-30T06:43:04;93566.97;;;12.93;100.00
73600;BME280;61877;48.246;9.220;2023-08-30T06:45:29;93577.66;;;13.13;100.00
73600;BME280;61877;48.246;9.220;2023-08-30T06:47:55;93577.34;;;13.18;97.27
73600;BME280;61877;48.246;9.220;2023-08-30T06:50:22;93570.47;;;13.53;99.22
73600;BME280;61877;48.246;9.220;2023-08-30T06:52:48;93569.81;;;13.63;97.64
73600;BME280;61877;48.246;9.220;2023-08-30T06:55:14;93566.38;;;13.66;98.83
73600;BME280;61877;48.246;9.220;2023-08-30T06:57:40;93562.84;;;13.59;97.62
73600;BME280;61877;48.246;9.220;2023-08-30T07:00:06;93565.00;;;13.46;94.75
73600;BME280;61877;48.246;9.220;2023-08-30T07:02:32;93567.34;;;13.48;95.26
73600;BME280;61877;48.246;9.220;2023-08-30T07:04:59;93564.38;;;13.56;97.61
73600;BME280;61877;48.246;9.220;2023-08-30T07:07:29;93561.47;;;13.75;97.58
73600;BME280;61877;48.246;9.220;2023-08-30T07:09:55;93566.25;;;13.89;96.17
73600;BME280;61877;48.246;9.220;2023-08-30T07:12:21;93564.28;;;13.86;96.42
73600;BME280;61877;48.246;9.220;2023-08-30T07:14:46;93564.69;;;13.88;97.47
73600;BME280;61877;48.246;9.220;2023-08-30T07:17:12;93565.47;;;13.88;94.64
73600;BME280;61877;48.246;9.220;2023-08-30T07:19:38;93561.81;;;13.70;92.23
73600;BME280;61877;48.246;9.220;2023-08-30T07:22:13;93550.38;;;13.47;96.64
73600;BME280;61877;48.246;9.220;2023-08-30T07:24:40;93553.50;;;13.49;97.06
73600;BME280;61877;48.246;9.220;2023-08-30T07:27:06;93560.66;;;13.71;95.02
73600;BME280;61877;48.246;9.220;2023-08-30T07:29:32;93550.69;;;13.75;92.71
73600;BME280;61877;48.246;9.220;2023-08-30T07:31:58;93556.63;;;13.91;95.03
73600;BME280;61877;48.246;9.220;2023-08-30T07:34:24;93557.19;;;14.07;93.02
73600;BME280;61877;48.246;9.220;2023-08-30T07:36:53;93558.22;;;14.36;93.41
73600;BME280;61877;48.246;9.220;2023-08-30T07:39:19;93556.44;;;14.51;91.10
73600;BME280;61877;48.246;9.220;2023-08-30T07:41:47;93556.59;;;14.72;86.95
73600;BME280;61877;48.246;9.220;2023-08-30T07:44:17;93552.47;;;14.92;89.09
73600;BME280;61877;48.246;9.220;2023-08-30T07:46:44;93558.59;;;14.85;84.66
73600;BME280;61877;48.246;9.220;2023-08-30T07:49:10;93556.22;;;14.77;85.15
73600;BME280;61877;48.246;9.220;2023-08-30T07:51:41;93557.00;;;14.74;87.01
73600;BME280;61877;48.246;9.220;2023-08-30T07:54:09;93558.56;;;14.78;82.90
73600;BME280;61877;48.246;9.220;2023-08-30T07:56:35;93557.06;;;14.88;83.90
73600;BME280;61877;48.246;9.220;2023-08-30T07:59:03;93564.88;;;15.00;83.97
73600;BME280;61877;48.246;9.220;2023-08-30T08:01:31;93554.78;;;14.90;81.55
73600;BME280;61877;48.246;9.220;2023-08-30T08:04:00;93563.53;;;14.73;84.30
73600;BME280;61877;48.246;9.220;2023-08-30T08:06:26;93560.41;;;14.67;82.76
73600;BME280;61877;48.246;9.220;2023-08-30T08:08:52;93562.63;;;15.16;83.68
73600;BME280;61877;48.246;9.220;2023-08-30T08:11:20;93557.22;;;15.16;82.39
73600;BME280;61877;48.246;9.220;2023-08-30T08:13:46;93551.63;;;15.52;83.02
73600;BME280;61877;48.246;9.220;2023-08-30T08:16:15;93556.41;;;15.98;82.41
73600;BME280;61877;48.246;9.220;2023-08-30T08:18:41;93553.75;;;16.43;79.23
73600;BME280;61877;48.246;9.220;2023-08-30T08:21:21;93555.28;;;17.18;76.62
73600;BME280;61877;48.246;9.220;2023-08-30T08:23:51;93559.94;;;17.18;70.93
73600;BME280;61877;48.246;9.220;2023-08-30T08:26:35;93558.81;;;16.94;72.85
73600;BME280;61877;48.246;9.220;2023-08-30T08:30:12;93567.31;;;16.33;73.54
73600;BME280;61877;48.246;9.220;2023-08-30T08:32:22;93563.44;;;15.20;76.39
73600;BME280;61877;48.246;9.220;2023-08-30T08:34:49;93565.72;;;15.14;77.48
73600;BME280;61877;48.246;9.220;2023-08-30T08:37:15;93562.59;;;15.09;76.91
73600;BME280;61877;48.246;9.220;2023-08-30T08:39:41;93557.56;;;16.00;82.43
73600;BME280;61877;48.246;9.220;2023-08-30T08:42:06;93546.84;;;16.60;77.83
73600;BME280;61877;48.246;9.220;2023-08-30T08:44:36;93542.91;;;17.14;73.42
73600;BME280;61877;48.246;9.220;2023-08-30T08:47:04;93547.03;;;17.64;73.33
73600;BME280;61877;48.246;9.220;2023-08-30T08:49:59;93539.72;;;17.47;72.99
73600;BME280;61877;48.246;9.220;2023-08-30T08:52:27;93541.31;;;18.17;73.33
73600;BME280;61877;48.246;9.220;2023-08-30T08:55:03;93534.72;;;18.18;70.24
73600;BME280;61877;48.246;9.220;2023-08-30T08:57:30;93533.66;;;18.59;68.31
73600;BME280;61877;48.246;9.220;2023-08-30T08:59:59;93533.41;;;18.91;70.27
73600;BME280;61877;48.246;9.220;2023-08-30T09:02:25;93537.03;;;18.74;66.86
73600;BME280;61877;48.246;9.220;2023-08-30T09:04:54;93541.94;;;18.93;66.99
73600;BME280;61877;48.246;9.220;2023-08-30T09:07:21;93535.44;;;19.20;64.69
73600;BME280;61877;48.246;9.220;2023-08-30T09:09:51;93536.06;;;19.35;66.81
73600;BME280;61877;48.246;9.220;2023-08-30T09:12:17;93533.72;;;19.37;64.35
73600;BME280;61877;48.246;9.220;2023-08-30T09:14:53;93530.81;;;19.85;66.88
73600;BME280;61877;48.246;9.220;2023-08-30T09:17:20;93527.34;;;19.51;60.65
73600;BME280;61877;48.246;9.220;2023-08-30T09:20:04;93534.63;;;19.61;66.27
73600;BME280;61877;48.246;9.220;2023-08-30T09:22:36;93537.03;;;19.85;56.63
73600;BME280;61877;48.246;9.220;2023-08-30T09:25:01;93537.59;;;19.40;58.27
73600;BME280;61877;48.246;9.220;2023-08-30T09:27:41;93540.03;;;18.35;62.69
73600;BME280;61877;48.246;9.220;2023-08-30T09:30:09;93531.59;;;18.74;62.31
73600;BME280;61877;48.246;9.220;2023-08-30T09:32:39;93534.03;;;18.61;59.86
73600;BME280;61877;48.246;9.220;2023-08-30T09:35:08;93521.50;;;18.74;64.74
73600;BME280;61877;48.246;9.220;2023-08-30T09:37:36;93524.13;;;18.88;60.74
73600;BME280;61877;48.246;9.220;2023-08-30T09:40:02;93527.94;;;18.94;61.67
73600;BME280;61877;48.246;9.220;2023-08-30T09:42:28;93524.81;;;19.37;61.78
73600;BME280;61877;48.246;9.220;2023-08-30T09:44:56;93527.03;;;19.79;58.11
73600;BME280;61877;48.246;9.220;2023-08-30T09:47:24;93522.56;;;19.62;60.94
73600;BME280;61877;48.246;9.220;2023-08-30T09:49:51;93513.16;;;20.26;62.62
73600;BME280;61877;48.246;9.220;2023-08-30T09:52:23;93515.28;;;20.42;57.10
73600;BME280;61877;48.246;9.220;2023-08-30T09:54:52;93512.34;;;20.79;60.43
73600;BME280;61877;48.246;9.220;2023-08-30T09:57:19;93511.25;;;20.96;55.86
73600;BME280;61877;48.246;9.220;2023-08-30T09:59:48;93508.94;;;21.18;56.40
73600;BME280;61877;48.246;9.220;2023-08-30T10:02:19;93506.47;;;21.86;58.51
73600;BME280;61877;48.246;9.220;2023-08-30T10:04:49;93507.41;;;22.15;55.58
73600;BME280;61877;48.246;9.220;2023-08-30T10:07:19;93502.31;;;22.17;54.31
73600;BME280;61877;48.246;9.220;2023-08-30T10:09:50;93507.50;;;22.11;55.61
73600;BME280;61877;48.246;9.220;2023-08-30T10:12:16;93494.41;;;22.38;54.50
73600;BME280;61877;48.246;9.220;2023-08-30T10:14:41;93503.34;;;22.23;55.39
73600;BME280;61877;48.246;9.220;2023-08-30T10:17:10;93499.50;;;22.36;54.79
73600;BME280;61877;48.246;9.220;2023-08-30T10:19:39;93500.91;;;22.92;57.28
73600;BME280;61877;48.246;9.220;2023-08-30T10:22:07;93491.59;;;22.90;53.90
73600;BME280;61877;48.246;9.220;2023-08-30T10:24:38;93486.28;;;22.51;52.77
73600;BME280;61877;48.246;9.220;2023-08-30T10:27:15;93473.00;;;22.17;54.71
73600;BME280;61877;48.246;9.220;2023-08-30T10:29:43;93487.50;;;22.14;53.95
73600;BME280;61877;48.246;9.220;2023-08-30T10:32:19;93483.41;;;23.19;51.54
73600;BME280;61877;48.246;9.220;2023-08-30T10:34:47;93477.88;;;22.42;50.12
73600;BME280;61877;48.246;9.220;2023-08-30T10:37:21;93483.19;;;22.49;51.78
73600;BME280;61877;48.246;9.220;2023-08-30T10:39:58;93479.50;;;22.75;50.69
73600;BME280;61877;48.246;9.220;2023-08-30T10:42:36;93483.38;;;23.51;52.04
73600;BME280;61877;48.246;9.220;2023-08-30T10:45:13;93478.09;;;23.85;50.53
73600;BME280;61877;48.246;9.220;2023-08-30T10:48:41;93471.47;;;23.98;50.44
73600;BME280;61877;48.246;9.220;2023-08-30T10:51:43;93469.91;;;23.97;48.55
73600;BME280;61877;48.246;9.220;2023-08-30T10:57:30;93465.44;;;22.57;51.03
73600;BME280;61877;48.246;9.220;2023-08-30T11:00:28;93465.72;;;22.62;52.04
73600;BME280;61877;48.246;9.220;2023-08-30T11:03:42;93469.03;;;22.38;51.07
73600;BME280;61877;48.246;9.220;2023-08-30T11:06:03;93466.78;;;22.17;54.54
73600;BME280;61877;48.246;9.220;2023-08-30T11:08:55;93469.28;;;22.75;50.20
73600;BME280;61877;48.246;9.220;2023-08-30T11:14:23;93465.22;;;23.12;53.79
73600;BME280;61877;48.246;9.220;2023-08-30T11:19:58;93470.81;;;22.44;48.83
73600;BME280;61877;48.246;9.220;2023-08-30T11:22:30;93468.78;;;21.97;51.36
73600;BME280;61877;48.246;9.220;2023-08-30T11:24:56;93463.91;;;22.88;51.65
73600;BME280;61877;48.246;9.220;2023-08-30T11:27:23;93466.56;;;23.20;45.33
73600;BME280;61877;48.246;9.220;2023-08-30T11:29:49;93457.94;;;23.22;49.92
73600;BME280;61877;48.246;9.220;2023-08-30T11:32:17;93464.25;;;23.35;50.51
73600;BME280;61877;48.246;9.220;2023-08-30T11:34:59;93456.81;;;23.35;46.53
73600;BME280;61877;48.246;9.220;2023-08-30T11:37:27;93452.13;;;23.89;48.58
73600;BME280;61877;48.246;9.220;2023-08-30T11:39:58;93451.16;;;23.96;46.79
73600;BME280;61877;48.246;9.220;2023-08-30T11:42:27;93445.19;;;24.98;47.02
73600;BME280;61877;48.246;9.220;2023-08-30T11:44:54;93451.66;;;23.37;42.84
73600;BME280;61877;48.246;9.220;2023-08-30T11:47:23;93459.41;;;24.08;45.07
73600;BME280;61877;48.246;9.220;2023-08-30T11:49:49;93456.28;;;22.95;44.33
73600;BME280;61877;48.246;9.220;2023-08-30T11:52:24;93449.84;;;23.02;49.07
73600;BME280;61877;48.246;9.220;2023-08-30T11:54:54;93454.81;;;24.05;49.07
73600;BME280;61877;48.246;9.220;2023-08-30T11:57:20;93458.81;;;23.47;45.18
73600;BME280;61877;48.246;9.220;2023-08-30T11:59:49;93456.66;;;23.55;45.31
73600;BME280;61877;48.246;9.220;2023-08-30T12:02:16;93453.09;;;23.42;44.91
73600;BME280;61877;48.246;9.220;2023-08-30T12:04:43;93456.41;;;22.76;49.34
73600;BME280;61877;48.246;9.220;2023-08-30T12:07:21;93456.22;;;22.67;44.36
73600;BME280;61877;48.246;9.220;2023-08-30T12:09:47;93452.06;;;21.36;48.70
73600;BME280;61877;48.246;9.220;2023-08-30T12:12:12;93455.09;;;21.02;52.74
73600;BME280;61877;48.246;9.220;2023-08-30T12:14:39;93455.91;;;20.99;51.70
73600;BME280;61877;48.246;9.220;2023-08-30T12:17:05;93458.00;;;20.69;51.17
73600;BME280;61877;48.246;9.220;2023-08-30T12:19:31;93455.31;;;20.19;50.31
73600;BME280;61877;48.246;9.220;2023-08-30T12:22:03;93461.38;;;20.00;49.94
73600;BME280;61877;48.246;9.220;2023-08-30T12:24:41;93451.75;;;19.35;52.96
73600;BME280;61877;48.246;9.220;2023-08-30T12:27:07;93458.84;;;19.25;53.81
73600;BME280;61877;48.246;9.220;2023-08-30T12:29:38;93451.41;;;19.33;58.52
73600;BME280;61877;48.246;9.220;2023-08-30T12:32:05;93464.84;;;18.73;53.99
73600;BME280;61877;48.246;9.220;2023-08-30T12:34:31;93464.16;;;18.65;55.27
73600;BME280;61877;48.246;9.220;2023-08-30T12:37:01;93462.88;;;18.29;55.26
73600;BME280;61877;48.246;9.220;2023-08-30T12:39:26;93459.44;;;18.22;57.32
73600;BME280;61877;48.246;9.220;2023-08-30T12:41:55;93461.94;;;18.02;60.70
73600;BME280;61877;48.246;9.220;2023-08-30T12:44:20;93459.69;;;17.90;64.65
73600;BME280;61877;48.246;9.220;2023-08-30T12:46:46;93456.72;;;17.67;77.91
73600;BME280;61877;48.246;9.220;2023-08-30T12:49:13;93464.63;;;17.30;76.48
73600;BME280;61877;48.246;9.220;2023-08-30T12:51:38;93459.41;;;17.70;84.84
73600;BME280;61877;48.246;9.220;2023-08-30T12:54:07;93463.41;;;18.10;84.99
73600;BME280;61877;48.246;9.220;2023-08-30T12:56:37;93468.31;;;18.26;86.97
73600;BME280;61877;48.246;9.220;2023-08-30T12:59:06;93463.63;;;18.33;84.98
73600;BME280;61877;48.246;9.220;2023-08-30T13:01:31;93464.75;;;18.39;83.24
73600;BME280;61877;48.246;9.220;2023-08-30T13:03:57;93459.28;;;18.46;83.53
73600;BME280;61877;48.246;9.220;2023-08-30T13:06:24;93455.56;;;18.70;83.23
73600;BME280;61877;48.246;9.220;2023-08-30T13:08:50;93457.59;;;19.00;79.91
73600;BME280;61877;48.246;9.220;2023-08-30T13:11:15;93456.47;;;19.31;78.03
73600;BME280;61877;48.246;9.220;2023-08-30T13:13:40;93452.41;;;19.46;81.18